sim
Sign-in with your pilot id or email,
or register
Callsign
Passwort

Schedule Details

Flight Number: RYR1146 (1)
Departure: Berlin Schonefeld Airport (EDDB) at 06:00
Arrival: Thessaloniki International Airport (LGTS) at 08:30
Route: Ryanair Passenger Schedule. Enter filed route here before submitting Pirep.

Weather Information
Getting current METAR information for EDDB 211150Z 26016KT 9999 FEW022 BKN040 10/06 Q1022 NOSIG
Getting current METAR information for LGTS 211150Z 34014KT CAVOK 16/00 Q1023 NOSIG

Schedule Frequency

Route Map